sensor_id;sensor_type;location;lat;lon;timestamp;P1;durP1;ratioP1;P2;durP2;ratioP2
20497;SDS011;10407;53.238;10.448;2022-11-15T00:01:08;33.97;;;20.00;;
20497;SDS011;10407;53.238;10.448;2022-11-15T00:03:38;38.47;;;20.70;;
20497;SDS011;10407;53.238;10.448;2022-11-15T00:06:05;36.57;;;21.30;;
20497;SDS011;10407;53.238;10.448;2022-11-15T00:08:33;36.77;;;19.87;;
20497;SDS011;10407;53.238;10.448;2022-11-15T00:11:01;35.37;;;20.00;;
20497;SDS011;10407;53.238;10.448;2022-11-15T00:13:29;34.80;;;20.33;;
20497;SDS011;10407;53.238;10.448;2022-11-15T00:15:57;34.50;;;20.43;;
20497;SDS011;10407;53.238;10.448;2022-11-15T00:18:27;34.13;;;20.43;;
20497;SDS011;10407;53.238;10.448;2022-11-15T00:20:55;40.47;;;22.03;;
20497;SDS011;10407;53.238;10.448;2022-11-15T00:23:25;30.60;;;19.63;;
20497;SDS011;10407;53.238;10.448;2022-11-15T00:25:55;33.10;;;19.13;;
20497;SDS011;10407;53.238;10.448;2022-11-15T00:28:24;37.53;;;19.80;;
20497;SDS011;10407;53.238;10.448;2022-11-15T00:30:52;35.40;;;19.70;;
20497;SDS011;10407;53.238;10.448;2022-11-15T00:33:19;31.67;;;20.10;;
20497;SDS011;10407;53.238;10.448;2022-11-15T00:35:47;35.30;;;20.50;;
20497;SDS011;10407;53.238;10.448;2022-11-15T00:38:14;35.80;;;20.30;;
20497;SDS011;10407;53.238;10.448;2022-11-15T00:40:42;33.27;;;19.33;;
20497;SDS011;10407;53.238;10.448;2022-11-15T00:43:09;31.47;;;17.80;;
20497;SDS011;10407;53.238;10.448;2022-11-15T00:45:37;30.33;;;19.10;;
20497;SDS011;10407;53.238;10.448;2022-11-15T00:48:04;34.50;;;19.17;;
20497;SDS011;10407;53.238;10.448;2022-11-15T00:50:32;34.43;;;20.30;;
20497;SDS011;10407;53.238;10.448;2022-11-15T00:52:59;34.10;;;20.43;;
20497;SDS011;10407;53.238;10.448;2022-11-15T00:55:27;31.33;;;19.40;;
20497;SDS011;10407;53.238;10.448;2022-11-15T00:57:54;35.27;;;19.37;;
20497;SDS011;10407;53.238;10.448;2022-11-15T01:00:22;28.03;;;17.80;;
20497;SDS011;10407;53.238;10.448;2022-11-15T01:02:50;32.80;;;19.00;;
20497;SDS011;10407;53.238;10.448;2022-11-15T01:05:17;32.57;;;19.07;;
20497;SDS011;10407;53.238;10.448;2022-11-15T01:07:45;34.83;;;19.47;;
20497;SDS011;10407;53.238;10.448;2022-11-15T01:10:12;31.30;;;17.70;;
20497;SDS011;10407;53.238;10.448;2022-11-15T01:12:40;35.90;;;19.33;;
20497;SDS011;10407;53.238;10.448;2022-11-15T01:15:07;32.07;;;17.50;;
20497;SDS011;10407;53.238;10.448;2022-11-15T01:17:35;32.30;;;18.40;;
20497;SDS011;10407;53.238;10.448;2022-11-15T01:20:02;32.30;;;18.93;;
20497;SDS011;10407;53.238;10.448;2022-11-15T01:22:31;30.80;;;18.23;;
20497;SDS011;10407;53.238;10.448;2022-11-15T01:24:58;31.53;;;19.10;;
20497;SDS011;10407;53.238;10.448;2022-11-15T01:27:26;30.93;;;17.20;;
20497;SDS011;10407;53.238;10.448;2022-11-15T01:29:53;33.67;;;17.83;;
20497;SDS011;10407;53.238;10.448;2022-11-15T01:32:21;32.73;;;19.30;;
20497;SDS011;10407;53.238;10.448;2022-11-15T01:34:48;35.43;;;19.97;;
20497;SDS011;10407;53.238;10.448;2022-11-15T01:37:16;33.77;;;18.90;;
20497;SDS011;10407;53.238;10.448;2022-11-15T01:39:43;30.67;;;17.73;;
20497;SDS011;10407;53.238;10.448;2022-11-15T01:42:14;30.90;;;18.37;;
20497;SDS011;10407;53.238;10.448;2022-11-15T01:44:48;29.23;;;15.70;;
20497;SDS011;10407;53.238;10.448;2022-11-15T01:47:22;31.37;;;17.60;;
20497;SDS011;10407;53.238;10.448;2022-11-15T01:49:58;29.03;;;16.57;;
20497;SDS011;10407;53.238;10.448;2022-11-15T01:52:28;31.10;;;17.50;;
20497;SDS011;10407;53.238;10.448;2022-11-15T01:55:00;27.50;;;16.43;;
20497;SDS011;10407;53.238;10.448;2022-11-15T01:57:29;34.90;;;17.83;;
20497;SDS011;10407;53.238;10.448;2022-11-15T01:59:57;27.87;;;16.30;;
20497;SDS011;10407;53.238;10.448;2022-11-15T02:02:27;32.57;;;16.20;;
20497;SDS011;10407;53.238;10.448;2022-11-15T02:04:54;28.77;;;16.40;;
20497;SDS011;10407;53.238;10.448;2022-11-15T02:07:22;33.80;;;18.10;;
20497;SDS011;10407;53.238;10.448;2022-11-15T02:09:49;29.07;;;16.10;;
20497;SDS011;10407;53.238;10.448;2022-11-15T02:12:19;31.90;;;17.20;;
20497;SDS011;10407;53.238;10.448;2022-11-15T02:14:49;26.17;;;15.17;;
20497;SDS011;10407;53.238;10.448;2022-11-15T02:17:28;31.00;;;17.50;;
20497;SDS011;10407;53.238;10.448;2022-11-15T02:29:07;29.40;;;17.00;;
20497;SDS011;10407;53.238;10.448;2022-11-15T02:31:57;30.23;;;16.97;;
20497;SDS011;10407;53.238;10.448;2022-11-15T02:37:32;31.87;;;17.23;;
20497;SDS011;10407;53.238;10.448;2022-11-15T02:40:00;28.47;;;17.90;;
20497;SDS011;10407;53.238;10.448;2022-11-15T02:42:40;34.80;;;19.43;;
20497;SDS011;10407;53.238;10.448;2022-11-15T02:45:35;25.00;;;15.43;;
20497;SDS011;10407;53.238;10.448;2022-11-15T02:47:59;29.07;;;16.30;;
20497;SDS011;10407;53.238;10.448;2022-11-15T02:50:30;27.90;;;17.27;;
20497;SDS011;10407;53.238;10.448;2022-11-15T02:52:59;34.80;;;18.03;;
20497;SDS011;10407;53.238;10.448;2022-11-15T02:55:28;27.17;;;16.40;;
20497;SDS011;10407;53.238;10.448;2022-11-15T02:58:18;26.80;;;16.07;;
20497;SDS011;10407;53.238;10.448;2022-11-15T03:01:02;33.30;;;20.00;;
20497;SDS011;10407;53.238;10.448;2022-11-15T03:03:49;29.47;;;18.20;;
20497;SDS011;10407;53.238;10.448;2022-11-15T03:06:22;30.40;;;18.03;;
20497;SDS011;10407;53.238;10.448;2022-11-15T03:09:15;30.77;;;15.93;;
20497;SDS011;10407;53.238;10.448;2022-11-15T03:11:59;28.70;;;16.10;;
20497;SDS011;10407;53.238;10.448;2022-11-15T03:14:42;27.77;;;15.80;;
20497;SDS011;10407;53.238;10.448;2022-11-15T03:19:54;31.00;;;17.70;;
20497;SDS011;10407;53.238;10.448;2022-11-15T03:22:24;30.87;;;16.43;;
20497;SDS011;10407;53.238;10.448;2022-11-15T03:24:56;27.47;;;16.60;;
20497;SDS011;10407;53.238;10.448;2022-11-15T03:27:25;27.17;;;16.10;;
20497;SDS011;10407;53.238;10.448;2022-11-15T03:29:56;28.17;;;16.97;;
20497;SDS011;10407;53.238;10.448;2022-11-15T03:32:29;27.50;;;15.70;;
20497;SDS011;10407;53.238;10.448;2022-11-15T03:35:03;28.60;;;15.20;;
20497;SDS011;10407;53.238;10.448;2022-11-15T03:37:37;24.90;;;16.20;;
20497;SDS011;10407;53.238;10.448;2022-11-15T03:40:06;27.50;;;15.10;;
20497;SDS011;10407;53.238;10.448;2022-11-15T03:42:42;27.43;;;16.60;;
20497;SDS011;10407;53.238;10.448;2022-11-15T03:45:10;27.00;;;15.73;;
20497;SDS011;10407;53.238;10.448;2022-11-15T03:47:43;26.63;;;15.00;;
20497;SDS011;10407;53.238;10.448;2022-11-15T03:50:13;29.00;;;16.13;;
20497;SDS011;10407;53.238;10.448;2022-11-15T03:52:46;27.13;;;15.13;;
20497;SDS011;10407;53.238;10.448;2022-11-15T03:55:17;26.70;;;16.40;;
20497;SDS011;10407;53.238;10.448;2022-11-15T03:57:45;28.53;;;15.60;;
20497;SDS011;10407;53.238;10.448;2022-11-15T04:00:15;23.43;;;14.87;;
20497;SDS011;10407;53.238;10.448;2022-11-15T04:02:43;28.07;;;15.77;;
20497;SDS011;10407;53.238;10.448;2022-11-15T04:05:11;26.83;;;14.93;;
20497;SDS011;10407;53.238;10.448;2022-11-15T04:07:38;28.30;;;14.30;;
20497;SDS011;10407;53.238;10.448;2022-11-15T04:10:06;27.53;;;16.40;;
20497;SDS011;10407;53.238;10.448;2022-11-15T04:12:36;29.83;;;16.17;;
20497;SDS011;10407;53.238;10.448;2022-11-15T04:15:09;33.33;;;15.10;;
20497;SDS011;10407;53.238;10.448;2022-11-15T04:20:27;30.60;;;15.50;;
20497;SDS011;10407;53.238;10.448;2022-11-15T04:23:15;28.10;;;15.07;;
20497;SDS011;10407;53.238;10.448;2022-11-15T04:26:06;29.87;;;15.57;;
20497;SDS011;10407;53.238;10.448;2022-11-15T04:28:41;30.00;;;16.17;;
20497;SDS011;10407;53.238;10.448;2022-11-15T04:31:27;30.03;;;16.70;;
20497;SDS011;10407;53.238;10.448;2022-11-15T04:33:55;27.00;;;15.60;;
20497;SDS011;10407;53.238;10.448;2022-11-15T04:36:22;29.83;;;15.93;;
20497;SDS011;10407;53.238;10.448;2022-11-15T04:39:08;26.83;;;14.30;;
20497;SDS011;10407;53.238;10.448;2022-11-15T04:41:36;27.97;;;15.77;;
20497;SDS011;10407;53.238;10.448;2022-11-15T04:44:03;27.20;;;15.27;;
20497;SDS011;10407;53.238;10.448;2022-11-15T04:46:31;24.23;;;14.40;;
20497;SDS011;10407;53.238;10.448;2022-11-15T04:48:58;34.30;;;17.03;;
20497;SDS011;10407;53.238;10.448;2022-11-15T04:51:26;34.23;;;15.40;;
20497;SDS011;10407;53.238;10.448;2022-11-15T04:53:53;26.80;;;16.27;;
20497;SDS011;10407;53.238;10.448;2022-11-15T04:56:21;29.80;;;16.03;;
20497;SDS011;10407;53.238;10.448;2022-11-15T04:58:49;30.17;;;14.97;;
20497;SDS011;10407;53.238;10.448;2022-11-15T05:01:16;27.30;;;16.20;;
20497;SDS011;10407;53.238;10.448;2022-11-15T05:03:44;33.97;;;16.17;;
20497;SDS011;10407;53.238;10.448;2022-11-15T05:06:30;27.43;;;15.50;;
20497;SDS011;10407;53.238;10.448;2022-11-15T05:08:57;26.30;;;15.87;;
20497;SDS011;10407;53.238;10.448;2022-11-15T05:11:25;25.30;;;15.60;;
20497;SDS011;10407;53.238;10.448;2022-11-15T05:13:53;25.03;;;14.40;;
20497;SDS011;10407;53.238;10.448;2022-11-15T05:16:20;25.23;;;16.93;;
20497;SDS011;10407;53.238;10.448;2022-11-15T05:18:51;25.67;;;15.03;;
20497;SDS011;10407;53.238;10.448;2022-11-15T05:21:19;27.63;;;16.60;;
20497;SDS011;10407;53.238;10.448;2022-11-15T05:23:48;26.37;;;15.10;;
20497;SDS011;10407;53.238;10.448;2022-11-15T05:26:16;26.93;;;15.50;;
20497;SDS011;10407;53.238;10.448;2022-11-15T05:28:44;25.20;;;15.80;;
20497;SDS011;10407;53.238;10.448;2022-11-15T05:31:13;27.93;;;15.33;;
20497;SDS011;10407;53.238;10.448;2022-11-15T05:33:42;25.43;;;15.63;;
20497;SDS011;10407;53.238;10.448;2022-11-15T05:38:56;29.77;;;15.20;;
20497;SDS011;10407;53.238;10.448;2022-11-15T05:41:30;23.13;;;13.73;;
20497;SDS011;10407;53.238;10.448;2022-11-15T05:43:59;25.13;;;14.43;;
20497;SDS011;10407;53.238;10.448;2022-11-15T05:46:29;28.50;;;15.50;;
20497;SDS011;10407;53.238;10.448;2022-11-15T05:48:57;28.50;;;15.47;;
20497;SDS011;10407;53.238;10.448;2022-11-15T05:51:25;29.77;;;17.03;;
20497;SDS011;10407;53.238;10.448;2022-11-15T05:53:55;30.90;;;15.87;;
20497;SDS011;10407;53.238;10.448;2022-11-15T05:56:25;24.10;;;14.33;;
20497;SDS011;10407;53.238;10.448;2022-11-15T05:58:53;32.00;;;15.43;;
20497;SDS011;10407;53.238;10.448;2022-11-15T06:01:22;28.63;;;16.03;;
20497;SDS011;10407;53.238;10.448;2022-11-15T06:03:52;32.50;;;15.27;;
20497;SDS011;10407;53.238;10.448;2022-11-15T06:06:19;29.33;;;17.87;;
20497;SDS011;10407;53.238;10.448;2022-11-15T06:08:47;25.97;;;15.33;;
20497;SDS011;10407;53.238;10.448;2022-11-15T06:11:14;27.73;;;16.23;;
20497;SDS011;10407;53.238;10.448;2022-11-15T06:13:42;28.97;;;16.03;;
20497;SDS011;10407;53.238;10.448;2022-11-15T06:16:10;26.80;;;15.53;;
20497;SDS011;10407;53.238;10.448;2022-11-15T06:18:37;29.87;;;17.27;;
20497;SDS011;10407;53.238;10.448;2022-11-15T06:21:05;28.43;;;16.80;;
20497;SDS011;10407;53.238;10.448;2022-11-15T06:23:33;26.80;;;17.30;;
20497;SDS011;10407;53.238;10.448;2022-11-15T06:26:01;24.10;;;15.60;;
20497;SDS011;10407;53.238;10.448;2022-11-15T06:28:30;27.57;;;15.33;;
20497;SDS011;10407;53.238;10.448;2022-11-15T06:31:07;27.40;;;16.03;;
20497;SDS011;10407;53.238;10.448;2022-11-15T06:33:31;25.30;;;14.80;;
20497;SDS011;10407;53.238;10.448;2022-11-15T06:36:02;28.60;;;15.13;;
20497;SDS011;10407;53.238;10.448;2022-11-15T06:38:31;28.90;;;16.90;;
20497;SDS011;10407;53.238;10.448;2022-11-15T06:41:06;27.03;;;15.57;;
20497;SDS011;10407;53.238;10.448;2022-11-15T06:43:35;26.67;;;16.17;;
20497;SDS011;10407;53.238;10.448;2022-11-15T06:46:04;24.50;;;15.53;;
20497;SDS011;10407;53.238;10.448;2022-11-15T06:48:33;29.20;;;17.40;;
20497;SDS011;10407;53.238;10.448;2022-11-15T06:51:02;23.50;;;14.93;;
20497;SDS011;10407;53.238;10.448;2022-11-15T06:53:31;29.03;;;16.53;;
20497;SDS011;10407;53.238;10.448;2022-11-15T06:55:59;29.70;;;17.20;;
20497;SDS011;10407;53.238;10.448;2022-11-15T06:58:28;27.40;;;15.30;;
20497;SDS011;10407;53.238;10.448;2022-11-15T07:01:04;28.10;;;15.70;;
20497;SDS011;10407;53.238;10.448;2022-11-15T07:03:36;31.30;;;18.67;;
20497;SDS011;10407;53.238;10.448;2022-11-15T07:06:05;27.23;;;16.33;;
20497;SDS011;10407;53.238;10.448;2022-11-15T07:08:34;26.50;;;14.47;;
20497;SDS011;10407;53.238;10.448;2022-11-15T07:11:03;29.33;;;15.30;;
20497;SDS011;10407;53.238;10.448;2022-11-15T07:13:32;23.13;;;14.63;;
20497;SDS011;10407;53.238;10.448;2022-11-15T07:16:04;25.43;;;14.80;;
20497;SDS011;10407;53.238;10.448;2022-11-15T07:18:37;27.27;;;15.70;;
20497;SDS011;10407;53.238;10.448;2022-11-15T07:21:06;25.00;;;14.50;;
20497;SDS011;10407;53.238;10.448;2022-11-15T07:23:38;28.40;;;16.57;;
20497;SDS011;10407;53.238;10.448;2022-11-15T07:26:06;27.77;;;16.17;;
20497;SDS011;10407;53.238;10.448;2022-11-15T07:28:35;28.23;;;16.03;;
20497;SDS011;10407;53.238;10.448;2022-11-15T07:31:06;27.47;;;16.60;;
20497;SDS011;10407;53.238;10.448;2022-11-15T07:33:35;26.87;;;15.73;;
20497;SDS011;10407;53.238;10.448;2022-11-15T07:36:03;27.57;;;15.67;;
20497;SDS011;10407;53.238;10.448;2022-11-15T07:38:32;27.80;;;14.70;;
20497;SDS011;10407;53.238;10.448;2022-11-15T07:41:02;28.40;;;16.17;;
20497;SDS011;10407;53.238;10.448;2022-11-15T07:43:30;30.10;;;15.10;;
20497;SDS011;10407;53.238;10.448;2022-11-15T07:46:08;20.77;;;12.20;;
20497;SDS011;10407;53.238;10.448;2022-11-15T07:48:36;31.83;;;15.97;;
20497;SDS011;10407;53.238;10.448;2022-11-15T07:51:06;25.67;;;15.57;;
20497;SDS011;10407;53.238;10.448;2022-11-15T07:53:35;22.47;;;14.97;;
20497;SDS011;10407;53.238;10.448;2022-11-15T07:56:05;28.37;;;15.83;;
20497;SDS011;10407;53.238;10.448;2022-11-15T07:58:33;20.90;;;13.93;;
20497;SDS011;10407;53.238;10.448;2022-11-15T08:01:04;21.30;;;13.57;;
20497;SDS011;10407;53.238;10.448;2022-11-15T08:03:33;22.80;;;14.03;;
20497;SDS011;10407;53.238;10.448;2022-11-15T08:06:01;23.17;;;13.13;;
20497;SDS011;10407;53.238;10.448;2022-11-15T08:08:29;20.67;;;13.20;;
20497;SDS011;10407;53.238;10.448;2022-11-15T08:10:57;23.60;;;14.07;;
20497;SDS011;10407;53.238;10.448;2022-11-15T08:13:25;24.93;;;14.03;;
20497;SDS011;10407;53.238;10.448;2022-11-15T08:15:57;20.60;;;13.30;;
20497;SDS011;10407;53.238;10.448;2022-11-15T08:18:28;21.40;;;14.03;;
20497;SDS011;10407;53.238;10.448;2022-11-15T08:21:03;19.37;;;13.03;;
20497;SDS011;10407;53.238;10.448;2022-11-15T08:23:28;22.20;;;14.50;;
20497;SDS011;10407;53.238;10.448;2022-11-15T08:26:04;21.10;;;13.87;;
20497;SDS011;10407;53.238;10.448;2022-11-15T08:28:29;21.00;;;13.50;;
20497;SDS011;10407;53.238;10.448;2022-11-15T08:30:58;20.80;;;11.73;;
20497;SDS011;10407;53.238;10.448;2022-11-15T08:33:26;19.90;;;12.40;;
20497;SDS011;10407;53.238;10.448;2022-11-15T08:35:56;19.67;;;12.03;;
20497;SDS011;10407;53.238;10.448;2022-11-15T08:38:26;20.27;;;13.23;;
20497;SDS011;10407;53.238;10.448;2022-11-15T08:40:58;18.00;;;12.60;;
20497;SDS011;10407;53.238;10.448;2022-11-15T08:43:27;16.57;;;11.47;;
20497;SDS011;10407;53.238;10.448;2022-11-15T08:45:56;19.33;;;12.80;;
20497;SDS011;10407;53.238;10.448;2022-11-15T08:48:24;19.63;;;13.30;;
20497;SDS011;10407;53.238;10.448;2022-11-15T08:50:55;18.27;;;11.67;;
20497;SDS011;10407;53.238;10.448;2022-11-15T08:53:23;23.30;;;11.30;;
20497;SDS011;10407;53.238;10.448;2022-11-15T08:55:50;18.47;;;11.80;;
20497;SDS011;10407;53.238;10.448;2022-11-15T08:58:18;18.33;;;12.40;;
20497;SDS011;10407;53.238;10.448;2022-11-15T09:00:45;16.00;;;11.60;;
20497;SDS011;10407;53.238;10.448;2022-11-15T09:03:13;17.00;;;12.27;;
20497;SDS011;10407;53.238;10.448;2022-11-15T09:05:40;20.73;;;13.60;;
20497;SDS011;10407;53.238;10.448;2022-11-15T09:08:08;19.90;;;12.13;;
20497;SDS011;10407;53.238;10.448;2022-11-15T09:10:37;22.17;;;13.10;;
20497;SDS011;10407;53.238;10.448;2022-11-15T09:13:04;16.83;;;11.70;;
20497;SDS011;10407;53.238;10.448;2022-11-15T09:15:32;18.23;;;11.83;;
20497;SDS011;10407;53.238;10.448;2022-11-15T09:17:59;16.67;;;11.00;;
20497;SDS011;10407;53.238;10.448;2022-11-15T09:20:27;21.90;;;12.73;;
20497;SDS011;10407;53.238;10.448;2022-11-15T09:22:54;16.20;;;12.00;;
20497;SDS011;10407;53.238;10.448;2022-11-15T09:25:27;19.60;;;12.83;;
20497;SDS011;10407;53.238;10.448;2022-11-15T09:27:55;19.90;;;12.13;;
20497;SDS011;10407;53.238;10.448;2022-11-15T09:30:24;20.20;;;11.87;;
20497;SDS011;10407;53.238;10.448;2022-11-15T09:32:51;19.93;;;12.40;;
20497;SDS011;10407;53.238;10.448;2022-11-15T09:35:19;16.90;;;11.97;;
20497;SDS011;10407;53.238;10.448;2022-11-15T09:37:47;21.17;;;12.17;;
20497;SDS011;10407;53.238;10.448;2022-11-15T09:40:15;12.77;;;9.93;;
20497;SDS011;10407;53.238;10.448;2022-11-15T09:49:16;18.50;;;10.27;;
20497;SDS011;10407;53.238;10.448;2022-11-15T09:51:04;13.87;;;9.53;;
20497;SDS011;10407;53.238;10.448;2022-11-15T09:56:35;15.20;;;9.57;;
20497;SDS011;10407;53.238;10.448;2022-11-15T10:04:21;14.07;;;9.63;;
20497;SDS011;10407;53.238;10.448;2022-11-15T10:09:31;13.23;;;9.17;;
20497;SDS011;10407;53.238;10.448;2022-11-15T10:11:57;11.90;;;8.43;;
20497;SDS011;10407;53.238;10.448;2022-11-15T10:14:26;14.50;;;9.70;;
20497;SDS011;10407;53.238;10.448;2022-11-15T10:19:47;16.17;;;9.03;;
20497;SDS011;10407;53.238;10.448;2022-11-15T10:24:50;13.63;;;9.00;;
20497;SDS011;10407;53.238;10.448;2022-11-15T10:27:21;12.83;;;9.03;;
20497;SDS011;10407;53.238;10.448;2022-11-15T10:29:50;15.53;;;10.10;;
20497;SDS011;10407;53.238;10.448;2022-11-15T10:32:18;15.00;;;9.17;;
20497;SDS011;10407;53.238;10.448;2022-11-15T10:34:47;13.80;;;8.60;;
20497;SDS011;10407;53.238;10.448;2022-11-15T10:37:38;13.70;;;9.30;;
20497;SDS011;10407;53.238;10.448;2022-11-15T10:40:05;18.80;;;8.63;;
20497;SDS011;10407;53.238;10.448;2022-11-15T10:42:32;16.80;;;10.33;;
20497;SDS011;10407;53.238;10.448;2022-11-15T10:44:59;12.23;;;7.93;;
20497;SDS011;10407;53.238;10.448;2022-11-15T10:47:30;15.83;;;8.80;;
20497;SDS011;10407;53.238;10.448;2022-11-15T10:50:00;14.00;;;9.47;;
20497;SDS011;10407;53.238;10.448;2022-11-15T10:52:29;16.33;;;8.30;;
20497;SDS011;10407;53.238;10.448;2022-11-15T10:57:31;14.93;;;9.90;;
20497;SDS011;10407;53.238;10.448;2022-11-15T11:00:05;12.60;;;7.63;;
20497;SDS011;10407;53.238;10.448;2022-11-15T11:02:56;13.83;;;9.67;;
20497;SDS011;10407;53.238;10.448;2022-11-15T11:05:32;12.77;;;7.60;;
20497;SDS011;10407;53.238;10.448;2022-11-15T11:13:25;11.93;;;7.87;;
20497;SDS011;10407;53.238;10.448;2022-11-15T11:16:41;11.30;;;7.97;;
20497;SDS011;10407;53.238;10.448;2022-11-15T11:18:32;12.93;;;8.70;;
20497;SDS011;10407;53.238;10.448;2022-11-15T11:21:03;11.50;;;8.43;;
20497;SDS011;10407;53.238;10.448;2022-11-15T11:23:36;14.50;;;8.73;;
20497;SDS011;10407;53.238;10.448;2022-11-15T11:26:15;15.60;;;8.60;;
20497;SDS011;10407;53.238;10.448;2022-11-15T11:39:40;12.77;;;8.40;;
20497;SDS011;10407;53.238;10.448;2022-11-15T11:42:26;14.90;;;9.73;;
20497;SDS011;10407;53.238;10.448;2022-11-15T11:44:58;14.67;;;9.07;;
20497;SDS011;10407;53.238;10.448;2022-11-15T11:47:58;14.40;;;7.33;;
20497;SDS011;10407;53.238;10.448;2022-11-15T11:50:31;13.23;;;8.53;;
20497;SDS011;10407;53.238;10.448;2022-11-15T11:53:02;13.57;;;7.60;;
20497;SDS011;10407;53.238;10.448;2022-11-15T11:55:44;9.63;;;7.27;;
20497;SDS011;10407;53.238;10.448;2022-11-15T11:58:25;11.13;;;6.97;;
20497;SDS011;10407;53.238;10.448;2022-11-15T12:01:08;12.20;;;7.43;;
20497;SDS011;10407;53.238;10.448;2022-11-15T12:03:57;11.90;;;7.37;;
20497;SDS011;10407;53.238;10.448;2022-11-15T12:06:41;9.00;;;7.10;;
20497;SDS011;10407;53.238;10.448;2022-11-15T12:12:08;11.87;;;7.50;;
20497;SDS011;10407;53.238;10.448;2022-11-15T12:14:50;13.07;;;8.10;;
20497;SDS011;10407;53.238;10.448;2022-11-15T12:17:38;13.17;;;7.73;;
20497;SDS011;10407;53.238;10.448;2022-11-15T12:20:19;9.33;;;6.47;;
20497;SDS011;10407;53.238;10.448;2022-11-15T12:22:47;10.13;;;7.50;;
20497;SDS011;10407;53.238;10.448;2022-11-15T12:25:44;12.20;;;7.67;;
20497;SDS011;10407;53.238;10.448;2022-11-15T12:28:08;12.20;;;7.77;;
20497;SDS011;10407;53.238;10.448;2022-11-15T12:30:56;13.20;;;8.50;;
20497;SDS011;10407;53.238;10.448;2022-11-15T12:33:41;15.83;;;8.27;;
20497;SDS011;10407;53.238;10.448;2022-11-15T12:38:57;12.07;;;7.97;;
20497;SDS011;10407;53.238;10.448;2022-11-15T12:41:27;15.00;;;8.67;;
20497;SDS011;10407;53.238;10.448;2022-11-15T12:44:00;12.17;;;7.53;;
20497;SDS011;10407;53.238;10.448;2022-11-15T12:50:00;14.97;;;8.00;;
20497;SDS011;10407;53.238;10.448;2022-11-15T12:59:50;13.90;;;9.60;;
20497;SDS011;10407;53.238;10.448;2022-11-15T13:02:35;11.73;;;7.80;;
20497;SDS011;10407;53.238;10.448;2022-11-15T13:10:33;12.80;;;8.00;;
20497;SDS011;10407;53.238;10.448;2022-11-15T13:13:02;14.37;;;9.17;;
20497;SDS011;10407;53.238;10.448;2022-11-15T13:20:56;12.23;;;7.00;;
20497;SDS011;10407;53.238;10.448;2022-11-15T13:23:24;13.10;;;7.67;;
20497;SDS011;10407;53.238;10.448;2022-11-15T13:26:01;12.10;;;7.93;;
20497;SDS011;10407;53.238;10.448;2022-11-15T13:33:55;13.90;;;8.70;;
20497;SDS011;10407;53.238;10.448;2022-11-15T13:36:25;13.10;;;7.63;;
20497;SDS011;10407;53.238;10.448;2022-11-15T13:39:03;11.90;;;7.97;;
20497;SDS011;10407;53.238;10.448;2022-11-15T13:41:33;12.03;;;7.93;;
20497;SDS011;10407;53.238;10.448;2022-11-15T13:44:03;10.40;;;8.10;;
20497;SDS011;10407;53.238;10.448;2022-11-15T13:46:32;12.70;;;7.23;;
20497;SDS011;10407;53.238;10.448;2022-11-15T13:49:08;11.47;;;7.63;;
20497;SDS011;10407;53.238;10.448;2022-11-15T13:54:16;13.93;;;7.93;;
20497;SDS011;10407;53.238;10.448;2022-11-15T13:56:45;15.07;;;8.30;;
20497;SDS011;10407;53.238;10.448;2022-11-15T14:01:58;13.37;;;8.40;;
20497;SDS011;10407;53.238;10.448;2022-11-15T14:04:28;15.23;;;8.97;;
20497;SDS011;10407;53.238;10.448;2022-11-15T14:06:59;11.77;;;7.80;;
20497;SDS011;10407;53.238;10.448;2022-11-15T14:09:30;10.97;;;7.97;;
20497;SDS011;10407;53.238;10.448;2022-11-15T14:12:00;10.30;;;7.87;;
20497;SDS011;10407;53.238;10.448;2022-11-15T14:14:29;13.77;;;8.53;;
20497;SDS011;10407;53.238;10.448;2022-11-15T14:16:58;17.20;;;9.23;;
20497;SDS011;10407;53.238;10.448;2022-11-15T14:30:39;12.13;;;8.10;;
20497;SDS011;10407;53.238;10.448;2022-11-15T14:33:20;13.43;;;7.07;;
20497;SDS011;10407;53.238;10.448;2022-11-15T14:35:54;10.20;;;7.13;;
20497;SDS011;10407;53.238;10.448;2022-11-15T14:38:23;11.03;;;7.27;;
20497;SDS011;10407;53.238;10.448;2022-11-15T14:40:52;11.73;;;7.53;;
20497;SDS011;10407;53.238;10.448;2022-11-15T14:43:21;13.10;;;7.27;;
20497;SDS011;10407;53.238;10.448;2022-11-15T14:45:49;13.10;;;8.00;;
20497;SDS011;10407;53.238;10.448;2022-11-15T14:48:16;9.70;;;7.13;;
20497;SDS011;10407;53.238;10.448;2022-11-15T14:50:44;10.80;;;6.83;;
20497;SDS011;10407;53.238;10.448;2022-11-15T14:53:12;10.10;;;7.73;;
20497;SDS011;10407;53.238;10.448;2022-11-15T14:55:42;10.50;;;7.20;;
20497;SDS011;10407;53.238;10.448;2022-11-15T14:58:10;9.37;;;6.10;;
20497;SDS011;10407;53.238;10.448;2022-11-15T15:00:38;12.43;;;7.40;;
20497;SDS011;10407;53.238;10.448;2022-11-15T15:03:07;10.40;;;6.60;;
20497;SDS011;10407;53.238;10.448;2022-11-15T15:05:40;11.47;;;7.07;;
20497;SDS011;10407;53.238;10.448;2022-11-15T15:08:09;11.00;;;6.83;;
20497;SDS011;10407;53.238;10.448;2022-11-15T15:10:38;13.10;;;6.40;;
20497;SDS011;10407;53.238;10.448;2022-11-15T15:13:18;13.33;;;8.57;;
20497;SDS011;10407;53.238;10.448;2022-11-15T15:15:50;13.70;;;7.57;;
20497;SDS011;10407;53.238;10.448;2022-11-15T15:18:18;11.97;;;7.30;;
20497;SDS011;10407;53.238;10.448;2022-11-15T15:20:47;10.60;;;7.60;;
20497;SDS011;10407;53.238;10.448;2022-11-15T15:23:20;11.20;;;7.33;;
20497;SDS011;10407;53.238;10.448;2022-11-15T15:25:49;17.07;;;8.10;;
20497;SDS011;10407;53.238;10.448;2022-11-15T15:28:18;18.03;;;7.03;;
20497;SDS011;10407;53.238;10.448;2022-11-15T15:30:46;10.90;;;7.80;;
20497;SDS011;10407;53.238;10.448;2022-11-15T15:33:15;11.37;;;7.60;;
20497;SDS011;10407;53.238;10.448;2022-11-15T15:35:42;12.70;;;7.03;;
20497;SDS011;10407;53.238;10.448;2022-11-15T15:38:13;12.77;;;7.70;;
20497;SDS011;10407;53.238;10.448;2022-11-15T15:40:41;15.00;;;7.97;;
20497;SDS011;10407;53.238;10.448;2022-11-15T15:43:09;12.97;;;7.93;;
20497;SDS011;10407;53.238;10.448;2022-11-15T15:45:37;16.13;;;8.50;;
20497;SDS011;10407;53.238;10.448;2022-11-15T15:48:10;12.80;;;7.80;;
20497;SDS011;10407;53.238;10.448;2022-11-15T15:50:39;14.40;;;8.37;;
20497;SDS011;10407;53.238;10.448;2022-11-15T15:53:08;13.13;;;8.07;;
20497;SDS011;10407;53.238;10.448;2022-11-15T15:55:37;17.37;;;8.80;;
20497;SDS011;10407;53.238;10.448;2022-11-15T15:58:05;13.13;;;8.23;;
20497;SDS011;10407;53.238;10.448;2022-11-15T16:00:33;19.70;;;8.97;;
20497;SDS011;10407;53.238;10.448;2022-11-15T16:03:01;16.40;;;10.13;;
20497;SDS011;10407;53.238;10.448;2022-11-15T16:05:29;17.30;;;9.70;;
20497;SDS011;10407;53.238;10.448;2022-11-15T16:07:56;14.53;;;8.73;;
20497;SDS011;10407;53.238;10.448;2022-11-15T16:10:25;14.27;;;8.67;;
20497;SDS011;10407;53.238;10.448;2022-11-15T16:12:54;14.07;;;8.10;;
20497;SDS011;10407;53.238;10.448;2022-11-15T16:15:24;19.20;;;9.13;;
20497;SDS011;10407;53.238;10.448;2022-11-15T16:17:54;12.87;;;9.10;;
20497;SDS011;10407;53.238;10.448;2022-11-15T16:23:11;15.90;;;8.70;;
20497;SDS011;10407;53.238;10.448;2022-11-15T16:25:50;14.83;;;8.60;;
20497;SDS011;10407;53.238;10.448;2022-11-15T16:28:22;12.80;;;8.17;;